createdAt,value
2019-06-01T00:04:06.113Z,15.22
2019-06-01T00:09:10.188Z,15.29
2019-06-01T00:14:14.287Z,15.22
2019-06-01T00:19:18.324Z,15.06
2019-06-01T00:24:22.794Z,14.90
2019-06-01T00:29:26.849Z,14.79
2019-06-01T00:34:30.940Z,14.63
2019-06-01T00:39:35.055Z,14.55
2019-06-01T00:44:39.091Z,14.58
2019-06-01T00:49:43.203Z,14.53
2019-06-01T00:54:47.409Z,14.48
2019-06-01T00:59:53.664Z,14.32
2019-06-01T01:05:01.739Z,14.24
2019-06-01T01:10:05.918Z,14.16
2019-06-01T01:15:10.086Z,14.03
2019-06-01T01:20:14.131Z,13.89
2019-06-01T01:25:18.255Z,13.85
2019-06-01T01:30:22.475Z,13.79
2019-06-01T01:35:27.336Z,13.66
2019-06-01T01:40:31.360Z,13.59
2019-06-01T01:45:35.433Z,13.56
2019-06-01T01:50:39.554Z,13.46
2019-06-01T01:55:43.628Z,13.48
2019-06-01T02:00:49.355Z,13.48
2019-06-01T02:05:54.893Z,13.48
2019-06-01T02:10:59.554Z,13.26
2019-06-01T02:16:03.632Z,13.14
2019-06-01T02:21:07.993Z,13.08
2019-06-01T02:26:12.051Z,13.04
2019-06-01T02:31:16.174Z,13.08
2019-06-01T02:36:20.238Z,13.05
2019-06-01T02:41:24.267Z,12.96
2019-06-01T02:46:28.927Z,13.09
2019-06-01T02:51:33.026Z,13.02
2019-06-01T02:56:37.108Z,12.92
2019-06-01T03:01:56.038Z,12.87
2019-06-01T03:06:49.511Z,12.82
2019-06-01T03:11:55.856Z,12.86
2019-06-01T03:17:01.727Z,12.89
2019-06-01T03:22:08.880Z,12.97
2019-06-01T03:27:14.880Z,13.04
2019-06-01T03:32:34.120Z,13.11
2019-06-01T03:37:24.662Z,13.21
2019-06-01T03:42:28.857Z,13.36
2019-06-01T03:47:32.968Z,13.49
2019-06-01T03:52:37.002Z,13.72
2019-06-01T03:57:41.023Z,13.98
2019-06-01T04:02:45.071Z,14.23
2019-06-01T04:07:49.182Z,14.45
2019-06-01T04:12:53.242Z,14.89
2019-06-01T04:17:57.311Z,15.40
2019-06-01T04:23:06.175Z,15.87
2019-06-01T04:28:10.357Z,15.93
2019-06-01T04:33:14.485Z,15.62
2019-06-01T04:38:18.515Z,15.71
2019-06-01T04:43:22.583Z,15.98
2019-06-01T04:48:26.600Z,16.13
2019-06-01T04:53:30.613Z,16.55
2019-06-01T04:58:34.650Z,17.28
2019-06-01T05:03:38.716Z,17.89
2019-06-01T05:08:43.296Z,17.92
2019-06-01T05:13:47.316Z,17.96
2019-06-01T05:18:51.351Z,18.15
2019-06-01T05:23:56.050Z,18.23
2019-06-01T05:29:00.182Z,18.42
2019-06-01T05:34:09.720Z,18.52
2019-06-01T05:39:14.443Z,18.71
2019-06-01T05:44:19.254Z,18.83
2019-06-01T05:49:23.655Z,18.83
2019-06-01T05:54:27.768Z,18.87
2019-06-01T05:59:31.836Z,19.07
2019-06-01T06:04:36.684Z,19.32
2019-06-01T06:09:49.920Z,19.55
2019-06-01T06:14:55.207Z,19.80
2019-06-01T06:19:59.279Z,20.15
2019-06-01T06:25:07.440Z,20.60
2019-06-01T06:30:12.800Z,20.74
2019-06-01T06:35:17.431Z,21.19
2019-06-01T06:40:22.149Z,22.47
2019-06-01T06:45:26.295Z,22.94
2019-06-01T06:50:30.596Z,23.23
2019-06-01T06:55:35.559Z,23.91
2019-06-01T07:00:39.693Z,27.06
2019-06-01T07:05:44.082Z,25.07
2019-06-01T07:10:48.255Z,28.07
2019-06-01T07:15:52.801Z,32.09
2019-06-01T07:20:56.872Z,30.31
2019-06-01T07:26:01.354Z,31.61
2019-06-01T07:31:05.791Z,32.27
2019-06-01T07:36:09.915Z,33.16
2019-06-01T07:41:14.376Z,33.26
2019-06-01T07:46:18.587Z,34.30
2019-06-01T07:51:23.225Z,34.98
2019-06-01T07:56:28.679Z,30.59
2019-06-01T08:01:33.038Z,33.69
2019-06-01T08:06:43.908Z,34.57
2019-06-01T08:11:42.968Z,32.17
2019-06-01T08:16:47.117Z,28.94
2019-06-01T08:21:51.163Z,29.92
2019-06-01T08:26:55.247Z,30.15
2019-06-01T08:31:59.339Z,29.42
2019-06-01T08:37:03.443Z,28.95
2019-06-01T08:42:07.529Z,29.71
2019-06-01T08:47:11.647Z,32.03
2019-06-01T08:52:15.742Z,32.60
2019-06-01T08:57:20.102Z,31.73
2019-06-01T09:02:24.580Z,31.45
2019-06-01T09:07:29.064Z,32.14
2019-06-01T09:12:33.355Z,31.64
2019-06-01T09:17:37.523Z,31.64
2019-06-01T09:22:41.595Z,33.60
2019-06-01T09:27:46.102Z,34.91
2019-06-01T09:32:50.230Z,33.46
2019-06-01T09:37:54.323Z,30.49
2019-06-01T09:42:59.681Z,30.49
2019-06-01T09:48:03.839Z,31.58
2019-06-01T09:53:07.977Z,30.75
2019-06-01T09:58:12.032Z,28.70
2019-06-01T10:03:16.256Z,30.71
2019-06-01T10:08:20.441Z,29.84
2019-06-01T10:13:24.478Z,29.95
2019-06-01T10:18:28.555Z,30.96
2019-06-01T10:23:32.645Z,32.74
2019-06-01T10:28:37.810Z,33.30
2019-06-01T10:33:43.197Z,33.34
2019-06-01T10:38:47.367Z,30.51
2019-06-01T10:43:51.407Z,30.04
2019-06-01T10:48:55.456Z,30.95
2019-06-01T10:53:59.487Z,32.28
2019-06-01T10:59:04.514Z,32.40
2019-06-01T11:04:08.558Z,31.73
2019-06-01T11:09:12.706Z,31.11
2019-06-01T11:14:16.778Z,31.99
2019-06-01T11:19:20.974Z,32.00
2019-06-01T11:24:25.044Z,29.93
2019-06-01T11:29:29.226Z,30.50
2019-06-01T11:34:33.962Z,30.33
2019-06-01T11:39:38.505Z,29.96
2019-06-01T11:44:42.922Z,29.65
2019-06-01T11:49:47.415Z,29.39
2019-06-01T11:54:51.545Z,30.43
2019-06-01T11:59:55.694Z,30.00
2019-06-01T12:04:59.758Z,30.77
2019-06-01T12:10:04.394Z,30.61
2019-06-01T12:15:08.996Z,31.56
2019-06-01T12:20:13.282Z,31.30
2019-06-01T12:25:17.487Z,31.87
2019-06-01T12:30:21.799Z,31.70
2019-06-01T12:35:26.103Z,31.54
2019-06-01T12:40:30.124Z,31.81
2019-06-01T12:45:34.155Z,29.30
2019-06-01T12:50:38.192Z,30.23
2019-06-01T12:55:42.859Z,31.83
2019-06-01T13:00:48.274Z,31.33
2019-06-01T13:05:52.535Z,31.35
2019-06-01T13:10:56.679Z,31.52
2019-06-01T13:16:00.733Z,30.60
2019-06-01T13:21:04.866Z,30.07
2019-06-01T13:26:09.158Z,30.30
2019-06-01T13:31:13.265Z,31.07
2019-06-01T13:36:17.385Z,30.71
2019-06-01T13:41:21.438Z,31.14
2019-06-01T13:46:25.687Z,30.59
2019-06-01T13:51:29.712Z,30.32
2019-06-01T13:56:33.817Z,31.13
2019-06-01T14:01:38.005Z,30.41
2019-06-01T14:06:42.121Z,30.30
2019-06-01T14:11:47.378Z,30.69
2019-06-01T14:16:51.919Z,30.33
2019-06-01T14:21:57.049Z,30.17
2019-06-01T14:27:04.502Z,30.66
2019-06-01T14:32:09.320Z,31.40
2019-06-01T14:37:13.637Z,30.93
2019-06-01T14:42:17.691Z,31.08
2019-06-01T14:47:21.749Z,31.75
2019-06-01T14:52:26.770Z,30.90
2019-06-01T14:57:32.070Z,31.15
2019-06-01T15:02:36.836Z,31.37
2019-06-01T15:07:40.971Z,29.74
2019-06-01T15:12:45.232Z,30.42
2019-06-01T15:17:53.338Z,30.98
2019-06-01T15:22:58.424Z,30.79
2019-06-01T15:28:04.076Z,29.84
2019-06-01T15:33:08.413Z,30.37
2019-06-01T15:38:13.500Z,30.34
2019-06-01T15:43:17.679Z,29.33
2019-06-01T15:48:21.711Z,30.16
2019-06-01T15:53:25.745Z,29.65
2019-06-01T15:58:30.064Z,29.57
2019-06-01T16:03:37.599Z,29.33
2019-06-01T16:08:41.853Z,29.18
2019-06-01T16:13:45.945Z,29.72
2019-06-01T16:18:49.981Z,29.23
2019-06-01T16:23:54.143Z,28.89
2019-06-01T16:28:58.559Z,28.67
2019-06-01T16:34:03.129Z,28.96
2019-06-01T16:39:08.335Z,29.00
2019-06-01T16:44:13.003Z,29.01
2019-06-01T16:49:17.248Z,29.13
2019-06-01T16:54:21.362Z,29.35
2019-06-01T16:59:25.816Z,29.07
2019-06-01T17:04:30.253Z,28.55
2019-06-01T17:09:34.313Z,29.06
2019-06-01T17:14:38.424Z,29.23
2019-06-01T17:19:42.458Z,28.76
2019-06-01T17:24:46.592Z,28.86
2019-06-01T17:29:50.731Z,28.07
2019-06-01T17:34:54.904Z,28.35
2019-06-01T17:40:00.046Z,28.42
2019-06-01T17:45:07.726Z,27.96
2019-06-01T17:50:13.970Z,27.24
2019-06-01T17:55:34.802Z,26.98
2019-06-01T18:00:39.659Z,27.11
2019-06-01T18:05:47.751Z,27.12
2019-06-01T18:10:55.979Z,27.29
2019-06-01T18:16:03.010Z,27.65
2019-06-01T18:21:10.490Z,27.85
2019-06-01T18:26:17.227Z,27.51
2019-06-01T18:31:25.788Z,27.32
2019-06-01T18:36:31.451Z,26.57
2019-06-01T18:41:37.636Z,25.96
2019-06-01T18:46:50.636Z,25.39
2019-06-01T18:51:56.764Z,24.86
2019-06-01T18:57:12.222Z,24.53
2019-06-01T19:02:14.585Z,24.17
2019-06-01T19:07:18.832Z,23.79
2019-06-01T19:12:24.524Z,23.31
2019-06-01T19:17:29.326Z,22.86
2019-06-01T19:22:34.532Z,22.50
2019-06-01T19:27:39.229Z,22.15
2019-06-01T19:32:43.696Z,21.76
2019-06-01T19:37:47.742Z,21.38
2019-06-01T19:42:52.145Z,20.97
2019-06-01T19:47:56.684Z,20.75
2019-06-01T19:53:01.229Z,20.49
2019-06-01T19:58:05.674Z,20.19
2019-06-01T20:03:10.296Z,19.91
2019-06-01T20:08:18.173Z,19.58
2019-06-01T20:13:22.602Z,19.27
2019-06-01T20:18:28.645Z,19.01
2019-06-01T20:23:35.067Z,18.85
2019-06-01T20:28:39.789Z,18.65
2019-06-01T20:33:43.862Z,18.44
2019-06-01T20:38:47.940Z,18.28
2019-06-01T20:43:52.045Z,17.99
2019-06-01T20:48:56.235Z,17.80
2019-06-01T20:54:03.291Z,17.64
2019-06-01T20:59:10.791Z,17.62
2019-06-01T21:04:18.055Z,17.42
2019-06-01T21:09:29.272Z,17.20
2019-06-01T21:14:37.116Z,17.04
2019-06-01T21:19:44.873Z,16.91
2019-06-01T21:24:53.215Z,16.75
2019-06-01T21:30:00.515Z,16.62
2019-06-01T21:35:05.410Z,16.52
2019-06-01T21:40:09.919Z,16.30
2019-06-01T21:45:15.415Z,16.11
2019-06-01T21:50:19.998Z,16.10
2019-06-01T21:55:24.733Z,15.99
2019-06-01T22:00:31.237Z,15.89
2019-06-01T22:05:35.442Z,15.77
2019-06-01T22:10:40.560Z,15.65
2019-06-01T22:15:44.776Z,15.62
2019-06-01T22:20:48.815Z,15.55
2019-06-01T22:25:52.941Z,15.50
2019-06-01T22:30:57.077Z,15.34
2019-06-01T22:36:01.182Z,15.21
2019-06-01T22:41:05.267Z,15.19
2019-06-01T22:46:09.817Z,15.18
2019-06-01T22:51:13.969Z,15.15
2019-06-01T22:56:18.083Z,15.00
2019-06-01T23:01:22.905Z,14.86
2019-06-01T23:06:27.103Z,14.76
2019-06-01T23:11:31.689Z,14.65
2019-06-01T23:16:35.849Z,14.57
2019-06-01T23:21:39.982Z,14.52
2019-06-01T23:26:44.502Z,14.42
2019-06-01T23:31:48.976Z,14.37
2019-06-01T23:36:53.064Z,14.27
2019-06-01T23:41:57.156Z,14.19
2019-06-01T23:47:01.242Z,14.13
2019-06-01T23:52:05.381Z,14.01
2019-06-01T23:57:09.766Z,13.87
